createdAt,value
2018-02-27T00:00:16.532Z,1031.11
2018-02-27T00:01:43.549Z,1031.06
2018-02-27T00:03:10.630Z,1031.05
2018-02-27T00:04:37.654Z,1031.05
2018-02-27T00:06:04.551Z,1031.07
2018-02-27T00:07:31.270Z,1031.01
2018-02-27T00:08:58.435Z,1031.02
2018-02-27T00:10:25.114Z,1030.99
2018-02-27T00:11:52.215Z,1031.00
2018-02-27T00:13:19.191Z,1031.01
2018-02-27T00:14:46.298Z,1031.00
2018-02-27T00:16:13.153Z,1030.97
2018-02-27T00:17:39.923Z,1030.94
2018-02-27T00:19:07.071Z,1030.94
2018-02-27T00:20:33.885Z,1030.93
2018-02-27T00:22:00.833Z,1030.92
2018-02-27T00:23:27.808Z,1030.93
2018-02-27T00:24:54.588Z,1030.90
2018-02-27T00:26:21.656Z,1030.91
2018-02-27T00:27:48.557Z,1030.90
2018-02-27T00:29:15.419Z,1030.88
2018-02-27T00:30:42.462Z,1030.88
2018-02-27T00:32:09.563Z,1030.88
2018-02-27T00:33:36.300Z,1030.87
2018-02-27T00:35:03.272Z,1030.86
2018-02-27T00:36:30.198Z,1030.87
2018-02-27T00:37:57.122Z,1030.85
2018-02-27T00:39:23.949Z,1030.83
2018-02-27T00:40:50.987Z,1030.78
2018-02-27T00:42:18.017Z,1030.76
2018-02-27T00:43:45.143Z,1030.70
2018-02-27T00:45:12.203Z,1030.68
2018-02-27T00:46:39.043Z,1030.65
2018-02-27T00:48:05.950Z,1030.66
2018-02-27T00:49:32.952Z,1030.63
2018-02-27T00:51:00.027Z,1030.60
2018-02-27T00:52:27.187Z,1030.58
2018-02-27T00:53:54.144Z,1030.59
2018-02-27T00:55:21.115Z,1030.57
2018-02-27T00:56:48.373Z,1030.54
2018-02-27T00:58:15.349Z,1030.53
2018-02-27T00:59:42.100Z,1030.52
2018-02-27T01:01:09.088Z,1030.56
2018-02-27T01:02:35.970Z,1030.53
2018-02-27T01:04:02.747Z,1030.53
2018-02-27T01:05:29.662Z,1030.51
2018-02-27T01:06:56.435Z,1030.46
2018-02-27T01:08:23.362Z,1030.47
2018-02-27T01:09:50.526Z,1030.41
2018-02-27T01:11:17.167Z,1030.42
2018-02-27T01:12:44.049Z,1030.39
2018-02-27T01:14:10.892Z,1030.39
2018-02-27T01:15:37.982Z,1030.38
2018-02-27T01:17:05.125Z,1030.37
2018-02-27T01:18:32.123Z,1030.34
2018-02-27T01:20:00.089Z,1030.28
2018-02-27T01:21:26.307Z,1030.24
2018-02-27T01:22:53.033Z,1030.21
2018-02-27T01:24:20.226Z,1030.20
2018-02-27T01:25:47.147Z,1030.19
2018-02-27T01:27:14.306Z,1030.17
2018-02-27T01:28:41.482Z,1030.13
2018-02-27T01:30:08.250Z,1030.12
2018-02-27T01:31:35.028Z,1030.09
2018-02-27T01:33:02.060Z,1030.10
2018-02-27T01:34:28.952Z,1030.07
2018-02-27T01:35:56.048Z,1030.07
2018-02-27T01:37:23.074Z,1030.06
2018-02-27T01:38:50.106Z,1030.02
2018-02-27T01:40:17.233Z,1029.99
2018-02-27T01:41:44.097Z,1029.97
2018-02-27T01:43:11.225Z,1029.98
2018-02-27T01:44:38.122Z,1029.94
2018-02-27T01:46:05.053Z,1029.92
2018-02-27T01:47:31.813Z,1029.91
2018-02-27T01:48:58.790Z,1029.88
2018-02-27T01:50:25.809Z,1029.86
2018-02-27T01:51:52.779Z,1029.87
2018-02-27T01:53:19.584Z,1029.90
2018-02-27T01:54:46.338Z,1029.90
2018-02-27T01:56:13.427Z,1029.90
2018-02-27T01:57:40.544Z,1029.89
2018-02-27T01:59:07.492Z,1029.89
2018-02-27T02:00:34.528Z,1029.86
2018-02-27T02:02:01.353Z,1029.85
2018-02-27T02:03:28.453Z,1029.84
2018-02-27T02:04:55.251Z,1029.79
2018-02-27T02:06:22.136Z,1029.78
2018-02-27T02:07:49.022Z,1029.75
2018-02-27T02:09:16.188Z,1029.70
2018-02-27T02:10:43.316Z,1029.70
2018-02-27T02:12:10.029Z,1029.67
2018-02-27T02:13:36.940Z,1029.63
2018-02-27T02:15:03.860Z,1029.65
2018-02-27T02:16:30.613Z,1029.65
2018-02-27T02:17:57.472Z,1029.62
2018-02-27T02:19:24.453Z,1029.60
2018-02-27T02:20:51.581Z,1029.60
2018-02-27T02:22:19.320Z,1029.58
2018-02-27T02:23:45.192Z,1029.57
2018-02-27T02:25:12.081Z,1029.56
2018-02-27T02:26:38.921Z,1029.54
2018-02-27T02:28:06.074Z,1029.51
2018-02-27T02:29:32.883Z,1029.53
2018-02-27T02:30:59.801Z,1029.50
2018-02-27T02:32:26.692Z,1029.46
2018-02-27T02:33:53.646Z,1029.45
2018-02-27T02:35:20.574Z,1029.42
2018-02-27T02:36:47.524Z,1029.38
2018-02-27T02:38:14.555Z,1029.37
2018-02-27T02:39:41.553Z,1029.36
2018-02-27T02:41:08.589Z,1029.35
2018-02-27T02:42:35.374Z,1029.32
2018-02-27T02:44:02.175Z,1029.29
2018-02-27T02:45:29.133Z,1029.28
2018-02-27T02:46:55.831Z,1029.26
2018-02-27T02:48:22.829Z,1029.23
2018-02-27T02:49:49.873Z,1029.18
2018-02-27T02:51:16.906Z,1029.19
2018-02-27T02:52:43.818Z,1029.22
2018-02-27T02:54:10.686Z,1029.23
2018-02-27T02:55:37.460Z,1029.25
2018-02-27T02:57:04.590Z,1029.23
2018-02-27T02:58:31.412Z,1029.21
2018-02-27T02:59:58.280Z,1029.20
2018-02-27T03:01:25.227Z,1029.18
2018-02-27T03:02:52.465Z,1029.17
2018-02-27T03:04:19.533Z,1029.15
2018-02-27T03:05:46.240Z,1029.12
2018-02-27T03:07:13.196Z,1029.09
2018-02-27T03:08:40.184Z,1029.09
2018-02-27T03:10:08.048Z,1029.06
2018-02-27T03:11:34.061Z,1029.05
2018-02-27T03:13:00.989Z,1029.04
2018-02-27T03:14:28.001Z,1029.02
2018-02-27T03:15:55.114Z,1029.01
2018-02-27T03:17:22.200Z,1029.01
2018-02-27T03:18:49.208Z,1029.03
2018-02-27T03:20:16.232Z,1029.01
2018-02-27T03:21:43.170Z,1028.99
2018-02-27T03:23:09.994Z,1028.97
2018-02-27T03:24:37.144Z,1028.95
2018-02-27T03:26:03.722Z,1028.96
2018-02-27T03:27:30.650Z,1028.94
2018-02-27T03:28:57.609Z,1028.91
2018-02-27T03:30:24.733Z,1028.88
2018-02-27T03:31:51.516Z,1028.86
2018-02-27T03:33:18.559Z,1028.88
2018-02-27T03:34:45.554Z,1028.85
2018-02-27T03:36:12.415Z,1028.85
2018-02-27T03:37:39.258Z,1028.79
2018-02-27T03:39:06.099Z,1028.77
2018-02-27T03:40:32.983Z,1028.80
2018-02-27T03:42:00.038Z,1028.78
2018-02-27T03:43:27.084Z,1028.76
2018-02-27T03:44:54.024Z,1028.77
2018-02-27T03:46:20.805Z,1028.76
2018-02-27T03:47:47.910Z,1028.75
2018-02-27T03:49:14.801Z,1028.73
2018-02-27T03:50:41.901Z,1028.71
2018-02-27T03:52:08.689Z,1028.69
2018-02-27T03:53:35.647Z,1028.67
2018-02-27T03:55:02.600Z,1028.67
2018-02-27T03:56:29.380Z,1028.67
2018-02-27T03:57:56.191Z,1028.65
2018-02-27T03:59:23.540Z,1028.64
2018-02-27T04:00:50.514Z,1028.63
2018-02-27T04:02:17.372Z,1028.64
2018-02-27T04:03:44.274Z,1028.61
2018-02-27T04:05:11.055Z,1028.63
2018-02-27T04:06:38.155Z,1028.66
2018-02-27T04:08:05.055Z,1028.65
2018-02-27T04:09:31.750Z,1028.64
2018-02-27T04:10:58.771Z,1028.61
2018-02-27T04:12:25.656Z,1028.60
2018-02-27T04:13:52.353Z,1028.60
2018-02-27T04:15:19.293Z,1028.58
2018-02-27T04:16:46.057Z,1028.56
2018-02-27T04:18:12.974Z,1028.56
2018-02-27T04:19:39.680Z,1028.55
2018-02-27T04:21:06.645Z,1028.54
2018-02-27T04:22:33.445Z,1028.53
2018-02-27T04:24:00.399Z,1028.53
2018-02-27T04:25:27.407Z,1028.52
2018-02-27T04:26:54.423Z,1028.53
2018-02-27T04:28:21.304Z,1028.53
2018-02-27T04:29:48.333Z,1028.51
2018-02-27T04:31:15.167Z,1028.51
2018-02-27T04:32:41.954Z,1028.49
2018-02-27T04:34:08.842Z,1028.47
2018-02-27T04:35:35.729Z,1028.46
2018-02-27T04:37:02.654Z,1028.44
2018-02-27T04:38:29.688Z,1028.45
2018-02-27T04:39:56.523Z,1028.43
2018-02-27T04:41:23.642Z,1028.40
2018-02-27T04:42:50.527Z,1028.37
2018-02-27T04:44:17.587Z,1028.35
2018-02-27T04:45:44.347Z,1028.34
2018-02-27T04:47:11.308Z,1028.34
2018-02-27T04:48:38.215Z,1028.29
2018-02-27T04:50:05.074Z,1028.29
2018-02-27T04:51:32.070Z,1028.27
2018-02-27T04:52:59.058Z,1028.28
2018-02-27T04:54:25.943Z,1028.25
2018-02-27T04:55:52.685Z,1028.24
2018-02-27T04:57:19.557Z,1028.22
2018-02-27T04:58:46.279Z,1028.19
2018-02-27T05:00:13.164Z,1028.17
2018-02-27T05:01:40.101Z,1028.17
2018-02-27T05:03:07.217Z,1028.19
2018-02-27T05:04:34.291Z,1028.19
2018-02-27T05:06:01.155Z,1028.17
2018-02-27T05:07:28.022Z,1028.15
2018-02-27T05:08:55.173Z,1028.13
2018-02-27T05:10:22.195Z,1028.13
2018-02-27T05:11:49.055Z,1028.09
2018-02-27T05:13:15.786Z,1028.08
2018-02-27T05:14:42.661Z,1028.07
2018-02-27T05:16:09.717Z,1028.05
2018-02-27T05:17:36.773Z,1028.05
2018-02-27T05:19:03.513Z,1028.01
2018-02-27T05:20:30.600Z,1027.97
2018-02-27T05:21:57.654Z,1027.94
2018-02-27T05:23:24.425Z,1027.95
2018-02-27T05:24:51.275Z,1027.92
2018-02-27T05:26:18.154Z,1027.93
2018-02-27T05:27:45.079Z,1027.92
2018-02-27T05:29:14.977Z,1027.91
2018-02-27T05:30:38.940Z,1027.89
2018-02-27T05:32:05.924Z,1027.88
2018-02-27T05:33:32.693Z,1027.92
2018-02-27T05:34:59.753Z,1027.92
2018-02-27T05:36:27.059Z,1027.87
2018-02-27T05:37:53.781Z,1027.87
2018-02-27T05:39:20.682Z,1027.92
2018-02-27T05:40:47.537Z,1027.94
2018-02-27T05:42:14.605Z,1027.93
2018-02-27T05:43:41.521Z,1027.90
2018-02-27T05:45:08.480Z,1027.92
2018-02-27T05:46:35.400Z,1027.97
2018-02-27T05:48:02.501Z,1027.96
2018-02-27T05:49:29.281Z,1027.98
2018-02-27T05:50:56.256Z,1027.97
2018-02-27T05:52:23.084Z,1028.00
2018-02-27T05:53:50.014Z,1027.98
2018-02-27T05:55:17.048Z,1028.00
2018-02-27T05:56:44.077Z,1027.95
2018-02-27T05:58:11.189Z,1027.99
2018-02-27T05:59:37.762Z,1027.97
2018-02-27T06:01:04.778Z,1027.97
2018-02-27T06:02:31.783Z,1027.95
2018-02-27T06:03:58.609Z,1027.96
2018-02-27T06:05:25.496Z,1027.95
2018-02-27T06:06:52.705Z,1027.93
2018-02-27T06:08:19.411Z,1027.93
2018-02-27T06:09:46.523Z,1027.91
2018-02-27T06:11:13.558Z,1027.89
2018-02-27T06:12:40.428Z,1027.86
2018-02-27T06:14:07.445Z,1027.81
2018-02-27T06:15:34.323Z,1027.83
2018-02-27T06:17:01.201Z,1027.82
2018-02-27T06:18:28.224Z,1027.80
2018-02-27T06:19:55.367Z,1027.80
2018-02-27T06:21:22.469Z,1027.81
2018-02-27T06:22:49.220Z,1027.79
2018-02-27T06:24:15.992Z,1027.81
2018-02-27T06:25:42.800Z,1027.82
2018-02-27T06:27:09.801Z,1027.80
2018-02-27T06:28:36.677Z,1027.79
2018-02-27T06:30:03.584Z,1027.78
2018-02-27T06:31:30.559Z,1027.76
2018-02-27T06:32:57.563Z,1027.77
2018-02-27T06:34:24.664Z,1027.76
2018-02-27T06:35:51.580Z,1027.76
2018-02-27T06:37:18.476Z,1027.76
2018-02-27T06:38:45.537Z,1027.77
2018-02-27T06:40:12.470Z,1027.78
2018-02-27T06:41:39.219Z,1027.76
2018-02-27T06:43:06.225Z,1027.74
2018-02-27T06:44:33.060Z,1027.73
2018-02-27T06:46:00.160Z,1027.74
2018-02-27T06:47:27.245Z,1027.74
2018-02-27T06:48:54.215Z,1027.71
2018-02-27T06:50:21.071Z,1027.71
2018-02-27T06:51:48.246Z,1027.71
2018-02-27T06:53:15.153Z,1027.69
2018-02-27T06:54:42.000Z,1027.69
2018-02-27T06:56:08.791Z,1027.65
2018-02-27T06:57:35.646Z,1027.65
2018-02-27T06:59:02.546Z,1027.60
2018-02-27T07:00:29.649Z,1027.61
2018-02-27T07:01:56.493Z,1027.59
2018-02-27T07:03:23.504Z,1027.55
2018-02-27T07:04:50.392Z,1027.56
2018-02-27T07:06:17.536Z,1027.56
2018-02-27T07:07:44.161Z,1027.54
2018-02-27T07:09:11.169Z,1027.51
2018-02-27T07:10:38.125Z,1027.49
2018-02-27T07:13:31.876Z,1027.49
2018-02-27T07:14:58.855Z,1027.44
2018-02-27T07:16:25.727Z,1027.45
2018-02-27T07:17:52.723Z,1027.43
2018-02-27T07:19:19.681Z,1027.45
2018-02-27T07:20:46.686Z,1027.44
2018-02-27T07:22:13.679Z,1027.45
2018-02-27T07:23:40.528Z,1027.48
2018-02-27T07:25:07.287Z,1027.48
2018-02-27T07:26:34.455Z,1027.46
2018-02-27T07:28:01.129Z,1027.44
2018-02-27T07:29:28.197Z,1027.46
2018-02-27T07:30:55.093Z,1027.47
2018-02-27T07:32:22.118Z,1027.49
2018-02-27T07:33:49.083Z,1027.50
2018-02-27T07:35:16.182Z,1027.49
2018-02-27T07:36:42.967Z,1027.45
2018-02-27T07:38:09.869Z,1027.46
2018-02-27T07:39:36.898Z,1027.44
2018-02-27T07:41:03.864Z,1027.41
2018-02-27T07:42:30.841Z,1027.42
2018-02-27T07:43:57.789Z,1027.40
2018-02-27T07:45:24.949Z,1027.39
2018-02-27T07:46:52.063Z,1027.40
2018-02-27T07:48:19.063Z,1027.37
2018-02-27T07:49:45.808Z,1027.39
2018-02-27T07:51:12.617Z,1027.39
2018-02-27T07:52:39.472Z,1027.38
2018-02-27T07:54:06.517Z,1027.36
2018-02-27T07:55:33.296Z,1027.39
2018-02-27T07:57:00.427Z,1027.41
2018-02-27T07:58:27.404Z,1027.40
2018-02-27T07:59:54.314Z,1027.40
2018-02-27T08:01:21.124Z,1027.39
2018-02-27T08:02:47.989Z,1027.39
2018-02-27T08:04:14.653Z,1027.36
2018-02-27T08:05:41.557Z,1027.38
2018-02-27T08:07:08.364Z,1027.34
2018-02-27T08:08:35.288Z,1027.31
2018-02-27T08:10:01.996Z,1027.29
2018-02-27T08:11:28.765Z,1027.28
2018-02-27T08:12:55.662Z,1027.28
2018-02-27T08:14:22.607Z,1027.28
2018-02-27T08:15:49.604Z,1027.27
2018-02-27T08:17:16.481Z,1027.25
2018-02-27T08:18:43.285Z,1027.28
2018-02-27T08:20:10.265Z,1027.27
2018-02-27T08:21:37.140Z,1027.26
2018-02-27T08:23:04.052Z,1027.25
2018-02-27T08:24:31.295Z,1027.21
2018-02-27T08:25:58.247Z,1027.23
2018-02-27T08:27:25.281Z,1027.22
2018-02-27T08:28:52.290Z,1027.22
2018-02-27T08:30:19.041Z,1027.23
2018-02-27T08:31:46.092Z,1027.21
2018-02-27T08:33:13.101Z,1027.20
2018-02-27T08:34:40.006Z,1027.19
2018-02-27T08:36:06.747Z,1027.16
2018-02-27T08:37:33.478Z,1027.17
2018-02-27T08:39:00.525Z,1027.18
2018-02-27T08:40:27.471Z,1027.21
2018-02-27T08:41:54.369Z,1027.26
2018-02-27T08:43:21.214Z,1027.27
2018-02-27T08:44:48.178Z,1027.28
2018-02-27T08:46:14.886Z,1027.28
2018-02-27T08:47:41.823Z,1027.29
2018-02-27T08:49:08.741Z,1027.29
2018-02-27T08:50:35.624Z,1027.27
2018-02-27T08:52:02.563Z,1027.26
2018-02-27T08:53:29.520Z,1027.21
2018-02-27T08:54:55.943Z,1027.20
2018-02-27T08:56:22.904Z,1027.19
2018-02-27T08:57:49.777Z,1027.17
2018-02-27T08:59:16.689Z,1027.13
2018-02-27T09:00:43.648Z,1027.12
2018-02-27T09:02:10.791Z,1027.10
2018-02-27T09:03:37.753Z,1027.08
2018-02-27T09:05:04.511Z,1027.12
2018-02-27T09:06:31.359Z,1027.10
2018-02-27T09:07:58.386Z,1027.10
2018-02-27T09:09:25.203Z,1027.08
2018-02-27T09:10:52.224Z,1027.10
2018-02-27T09:12:19.148Z,1027.09
2018-02-27T09:13:45.962Z,1027.12
2018-02-27T09:15:12.586Z,1027.13
2018-02-27T09:16:39.496Z,1027.15
2018-02-27T09:18:06.194Z,1027.18
2018-02-27T09:19:33.005Z,1027.19
2018-02-27T09:21:00.012Z,1027.18
2018-02-27T09:22:26.983Z,1027.22
2018-02-27T09:24:01.481Z,1027.22
2018-02-27T09:25:20.300Z,1027.23
2018-02-27T09:26:47.333Z,1027.25
2018-02-27T09:28:14.460Z,1027.28
2018-02-27T09:29:41.247Z,1027.22
2018-02-27T09:31:07.914Z,1027.27
2018-02-27T09:32:34.962Z,1027.24
2018-02-27T09:34:01.896Z,1027.24
2018-02-27T09:35:28.971Z,1027.25
2018-02-27T09:36:55.936Z,1027.17
2018-02-27T09:38:22.973Z,1027.16
2018-02-27T09:39:49.903Z,1027.16
2018-02-27T09:41:16.888Z,1027.15
2018-02-27T09:42:43.924Z,1027.15
2018-02-27T09:44:10.960Z,1027.13
2018-02-27T09:45:37.862Z,1027.14
2018-02-27T09:47:04.944Z,1027.10
2018-02-27T09:48:31.755Z,1027.10
2018-02-27T09:49:58.550Z,1027.11
2018-02-27T09:51:25.858Z,1027.09
2018-02-27T09:52:52.644Z,1027.09
2018-02-27T09:54:19.568Z,1027.11
2018-02-27T09:55:46.597Z,1027.10
2018-02-27T09:57:13.569Z,1027.11
2018-02-27T09:58:40.517Z,1027.14
2018-02-27T10:00:07.493Z,1027.16
2018-02-27T10:01:34.349Z,1027.16
2018-02-27T10:03:01.287Z,1027.14
2018-02-27T10:04:28.167Z,1027.15
2018-02-27T10:05:55.193Z,1027.15
2018-02-27T10:07:22.071Z,1027.15
2018-02-27T10:08:49.077Z,1027.15
2018-02-27T10:10:16.150Z,1027.15
2018-02-27T10:11:43.114Z,1027.12
2018-02-27T10:13:10.260Z,1027.12
2018-02-27T10:14:36.785Z,1027.10
2018-02-27T10:16:03.701Z,1027.10
2018-02-27T10:17:30.599Z,1027.09
2018-02-27T10:18:57.473Z,1027.10
2018-02-27T10:20:24.417Z,1027.07
2018-02-27T10:21:51.749Z,1027.08
2018-02-27T10:23:18.658Z,1027.03
2018-02-27T10:24:45.440Z,1026.98
2018-02-27T10:26:12.473Z,1026.95
2018-02-27T10:27:39.129Z,1026.97
2018-02-27T10:29:05.992Z,1026.99
2018-02-27T10:30:42.762Z,1027.01
2018-02-27T10:32:09.603Z,1026.99
2018-02-27T10:33:36.443Z,1027.01
2018-02-27T10:35:03.427Z,1026.95
2018-02-27T10:36:30.220Z,1027.02
2018-02-27T10:37:57.425Z,1027.02
2018-02-27T10:39:24.236Z,1027.06
2018-02-27T10:40:51.149Z,1027.04
2018-02-27T10:42:18.245Z,1027.04
2018-02-27T10:43:45.192Z,1027.07
2018-02-27T10:45:12.256Z,1027.09
2018-02-27T10:46:39.438Z,1027.11
2018-02-27T10:48:06.172Z,1027.09
2018-02-27T10:49:33.209Z,1027.11
2018-02-27T10:51:00.363Z,1027.10
2018-02-27T10:52:27.455Z,1027.09
2018-02-27T10:53:54.349Z,1027.09
2018-02-27T10:55:21.323Z,1027.09
2018-02-27T10:56:48.292Z,1027.06
2018-02-27T10:58:15.330Z,1027.05
2018-02-27T10:59:42.333Z,1027.03
2018-02-27T11:01:09.434Z,1027.03
2018-02-27T11:02:36.182Z,1027.02
2018-02-27T11:04:02.967Z,1027.01
2018-02-27T11:05:30.070Z,1027.00
2018-02-27T11:06:57.140Z,1026.97
2018-02-27T11:08:23.834Z,1027.00
2018-02-27T11:09:51.100Z,1026.99
2018-02-27T11:11:18.020Z,1026.99
2018-02-27T11:12:44.964Z,1026.98
2018-02-27T11:14:11.905Z,1026.98
2018-02-27T11:15:38.966Z,1027.01
2018-02-27T11:17:05.993Z,1027.00
2018-02-27T11:18:33.087Z,1026.98
2018-02-27T11:20:00.072Z,1026.95
2018-02-27T11:21:27.010Z,1026.95
2018-02-27T11:22:54.009Z,1026.94
2018-02-27T11:24:21.076Z,1026.96
2018-02-27T11:25:48.164Z,1026.96
2018-02-27T11:27:15.302Z,1026.97
2018-02-27T11:28:42.039Z,1026.98
2018-02-27T11:30:09.013Z,1026.98
2018-02-27T11:31:36.117Z,1027.02
2018-02-27T11:33:03.091Z,1026.99
2018-02-27T11:34:30.098Z,1026.99
2018-02-27T11:35:57.018Z,1027.00
2018-02-27T11:37:24.117Z,1027.01
2018-02-27T11:38:51.199Z,1027.03
2018-02-27T11:40:18.230Z,1027.02
2018-02-27T11:41:45.322Z,1027.02
2018-02-27T11:43:12.395Z,1027.02
2018-02-27T11:44:39.379Z,1027.01
2018-02-27T11:46:06.402Z,1027.00
2018-02-27T11:47:33.370Z,1026.96
2018-02-27T11:49:00.220Z,1026.94
2018-02-27T11:50:27.244Z,1026.92
2018-02-27T11:51:54.274Z,1026.88
2018-02-27T11:53:21.345Z,1026.86
2018-02-27T11:54:48.466Z,1026.86
2018-02-27T11:56:15.513Z,1026.83
2018-02-27T11:57:42.648Z,1026.80
2018-02-27T11:59:09.857Z,1026.80
2018-02-27T12:00:36.856Z,1026.78
2018-02-27T12:02:03.745Z,1026.75
2018-02-27T12:03:30.722Z,1026.72
2018-02-27T12:04:57.774Z,1026.75
2018-02-27T12:06:25.023Z,1026.75
2018-02-27T12:07:52.065Z,1026.73
2018-02-27T12:09:19.221Z,1026.73
2018-02-27T12:10:46.363Z,1026.69
2018-02-27T12:12:13.582Z,1026.71
2018-02-27T12:13:40.619Z,1026.75
2018-02-27T12:15:07.786Z,1026.74
2018-02-27T12:16:34.563Z,1026.73
2018-02-27T12:18:01.450Z,1026.73
2018-02-27T12:19:28.702Z,1026.70
2018-02-27T12:20:55.677Z,1026.66
2018-02-27T12:22:22.565Z,1026.69
2018-02-27T12:23:49.920Z,1026.69
2018-02-27T12:25:16.787Z,1026.68
2018-02-27T12:26:43.817Z,1026.66
2018-02-27T12:28:10.603Z,1026.70
2018-02-27T12:29:37.608Z,1026.66
2018-02-27T12:31:04.578Z,1026.63
2018-02-27T12:32:31.347Z,1026.62
2018-02-27T12:33:58.724Z,1026.64
2018-02-27T12:35:25.936Z,1026.61
2018-02-27T12:36:52.947Z,1026.63
2018-02-27T12:38:20.055Z,1026.61
2018-02-27T12:39:47.231Z,1026.60
2018-02-27T12:41:14.466Z,1026.60
2018-02-27T12:42:41.515Z,1026.52
2018-02-27T12:44:08.633Z,1026.53
2018-02-27T12:45:35.518Z,1026.52
2018-02-27T12:47:02.401Z,1026.56
2018-02-27T12:48:29.540Z,1026.62
2018-02-27T12:49:56.431Z,1026.60
2018-02-27T12:51:23.483Z,1026.58
2018-02-27T12:52:50.487Z,1026.61
2018-02-27T12:54:17.330Z,1026.58
2018-02-27T12:55:44.575Z,1026.61
2018-02-27T12:57:11.546Z,1026.60
2018-02-27T12:58:38.578Z,1026.60
2018-02-27T13:00:05.590Z,1026.59
2018-02-27T13:01:32.560Z,1026.62
2018-02-27T13:02:59.589Z,1026.65
2018-02-27T13:04:26.708Z,1026.69
2018-02-27T13:05:53.665Z,1026.67
2018-02-27T13:07:20.484Z,1026.68
2018-02-27T13:08:47.252Z,1026.71
2018-02-27T13:10:14.245Z,1026.72
2018-02-27T13:11:41.381Z,1026.77
2018-02-27T13:13:08.265Z,1026.74
2018-02-27T13:14:35.144Z,1026.74
2018-02-27T13:16:02.107Z,1026.81
2018-02-27T13:17:29.256Z,1026.78
2018-02-27T13:18:56.224Z,1026.80
2018-02-27T13:20:23.357Z,1026.82
2018-02-27T13:21:50.405Z,1026.85
2018-02-27T13:23:17.253Z,1026.84
2018-02-27T13:24:44.119Z,1026.90
2018-02-27T13:26:11.205Z,1026.88
2018-02-27T13:27:38.140Z,1026.87
2018-02-27T13:29:05.398Z,1026.89
2018-02-27T13:30:32.099Z,1026.87
2018-02-27T13:32:00.293Z,1026.89
2018-02-27T13:33:26.063Z,1026.90
2018-02-27T13:34:52.967Z,1026.91
2018-02-27T13:36:19.937Z,1026.86
2018-02-27T13:37:46.756Z,1026.88
2018-02-27T13:39:13.688Z,1026.89
2018-02-27T13:40:40.554Z,1026.89
2018-02-27T13:42:07.689Z,1026.91
2018-02-27T13:43:34.612Z,1026.93
2018-02-27T13:45:01.714Z,1026.85
2018-02-27T13:46:28.575Z,1026.87
2018-02-27T13:47:55.710Z,1026.84
2018-02-27T13:49:25.039Z,1026.88
2018-02-27T13:50:49.846Z,1026.85
2018-02-27T13:52:16.973Z,1026.81
2018-02-27T13:53:44.051Z,1026.87
2018-02-27T13:55:10.820Z,1026.86
2018-02-27T13:56:37.968Z,1026.89
2018-02-27T13:58:04.811Z,1026.87
2018-02-27T13:59:31.594Z,1026.86
2018-02-27T14:00:58.508Z,1026.86
2018-02-27T14:02:25.481Z,1026.89
2018-02-27T14:03:52.368Z,1026.97
2018-02-27T14:05:19.541Z,1026.97
2018-02-27T14:06:46.580Z,1026.99
2018-02-27T14:08:13.598Z,1027.01
2018-02-27T14:09:40.759Z,1027.00
2018-02-27T14:11:07.718Z,1027.05
2018-02-27T14:12:34.786Z,1027.05
2018-02-27T14:14:01.913Z,1027.05
2018-02-27T14:15:28.706Z,1027.05
2018-02-27T14:16:55.704Z,1027.03
2018-02-27T14:18:22.872Z,1027.05
2018-02-27T14:19:49.747Z,1027.11
2018-02-27T14:21:16.596Z,1027.09
2018-02-27T14:22:43.192Z,1027.12
2018-02-27T14:24:10.101Z,1027.14
2018-02-27T14:25:37.162Z,1027.17
2018-02-27T14:27:04.127Z,1027.19
2018-02-27T14:28:31.229Z,1027.22
2018-02-27T14:29:58.195Z,1027.29
2018-02-27T14:31:25.108Z,1027.31
2018-02-27T14:32:52.065Z,1027.34
2018-02-27T14:34:19.012Z,1027.40
2018-02-27T14:35:46.153Z,1027.45
2018-02-27T14:37:13.348Z,1027.47
2018-02-27T14:38:40.259Z,1027.46
2018-02-27T14:40:07.109Z,1027.48
2018-02-27T14:41:34.100Z,1027.48
2018-02-27T14:43:01.441Z,1027.51
2018-02-27T14:44:28.530Z,1027.55
2018-02-27T14:45:55.405Z,1027.55
2018-02-27T14:47:22.482Z,1027.56
2018-02-27T14:48:49.524Z,1027.62
2018-02-27T14:50:16.338Z,1027.65
2018-02-27T14:51:43.401Z,1027.63
2018-02-27T14:53:10.382Z,1027.63
2018-02-27T14:54:37.359Z,1027.61
2018-02-27T14:56:04.256Z,1027.63
2018-02-27T14:57:31.420Z,1027.64
2018-02-27T14:58:58.322Z,1027.63
2018-02-27T15:00:25.415Z,1027.64
2018-02-27T15:01:52.498Z,1027.69
2018-02-27T15:03:19.511Z,1027.70
2018-02-27T15:04:46.416Z,1027.71
2018-02-27T15:06:13.430Z,1027.73
2018-02-27T15:07:40.530Z,1027.73
2018-02-27T15:09:07.321Z,1027.75
2018-02-27T15:10:34.262Z,1027.80
2018-02-27T15:12:01.174Z,1027.79
2018-02-27T15:13:28.278Z,1027.84
2018-02-27T15:14:54.460Z,1027.86
2018-02-27T15:16:21.390Z,1027.86
2018-02-27T15:17:48.348Z,1027.87
2018-02-27T15:19:15.372Z,1027.89
2018-02-27T15:20:42.147Z,1027.90
2018-02-27T15:22:09.159Z,1027.94
2018-02-27T15:23:36.090Z,1027.95
2018-02-27T15:25:03.113Z,1027.95
2018-02-27T15:26:30.106Z,1027.96
2018-02-27T15:27:56.879Z,1028.02
2018-02-27T15:29:23.837Z,1028.02
2018-02-27T15:30:50.875Z,1028.09
2018-02-27T15:32:17.664Z,1028.12
2018-02-27T15:33:44.586Z,1028.15
2018-02-27T15:35:11.553Z,1028.17
2018-02-27T15:36:38.458Z,1028.22
2018-02-27T15:38:05.338Z,1028.25
2018-02-27T15:39:32.114Z,1028.28
2018-02-27T15:40:59.151Z,1028.31
2018-02-27T15:42:26.081Z,1028.35
2018-02-27T15:43:52.989Z,1028.38
2018-02-27T15:45:20.003Z,1028.42
2018-02-27T15:46:47.002Z,1028.46
2018-02-27T15:48:14.039Z,1028.48
2018-02-27T15:49:40.718Z,1028.50
2018-02-27T15:51:07.712Z,1028.49
2018-02-27T15:52:34.403Z,1028.57
2018-02-27T15:54:01.109Z,1028.57
2018-02-27T15:55:28.132Z,1028.58
2018-02-27T15:56:55.017Z,1028.61
2018-02-27T15:58:23.006Z,1028.62
2018-02-27T15:59:48.956Z,1028.64
2018-02-27T16:01:15.844Z,1028.64
2018-02-27T16:02:42.967Z,1028.65
2018-02-27T16:04:09.832Z,1028.67
2018-02-27T16:05:36.688Z,1028.67
2018-02-27T16:07:03.513Z,1028.71
2018-02-27T16:08:30.283Z,1028.68
2018-02-27T16:09:57.363Z,1028.72
2018-02-27T16:11:24.350Z,1028.76
2018-02-27T16:12:51.351Z,1028.78
2018-02-27T16:14:18.321Z,1028.83
2018-02-27T16:15:45.321Z,1028.81
2018-02-27T16:17:12.052Z,1028.82
2018-02-27T16:18:38.755Z,1028.84
2018-02-27T16:20:05.482Z,1028.86
2018-02-27T16:21:32.380Z,1028.89
2018-02-27T16:22:59.292Z,1028.89
2018-02-27T16:24:26.207Z,1028.92
2018-02-27T16:25:53.078Z,1028.96
2018-02-27T16:27:19.772Z,1028.99
2018-02-27T16:28:46.721Z,1029.02
2018-02-27T16:30:13.541Z,1029.03
2018-02-27T16:31:40.566Z,1029.05
2018-02-27T16:33:07.580Z,1029.10
2018-02-27T16:34:34.176Z,1029.13
2018-02-27T16:36:01.135Z,1029.14
2018-02-27T16:37:27.873Z,1029.18
2018-02-27T16:38:54.718Z,1029.18
2018-02-27T16:40:21.837Z,1029.22
2018-02-27T16:41:48.928Z,1029.25
2018-02-27T16:43:15.804Z,1029.25
2018-02-27T16:44:42.871Z,1029.25
2018-02-27T16:46:09.789Z,1029.28
2018-02-27T16:47:36.902Z,1029.29
2018-02-27T16:49:03.846Z,1029.31
2018-02-27T16:50:30.762Z,1029.33
2018-02-27T16:51:58.718Z,1029.34
2018-02-27T16:53:24.417Z,1029.35
2018-02-27T16:54:51.355Z,1029.35
2018-02-27T16:56:18.168Z,1029.36
2018-02-27T16:57:45.168Z,1029.44
2018-02-27T16:59:12.083Z,1029.44
2018-02-27T17:00:38.919Z,1029.49
2018-02-27T17:02:05.653Z,1029.52
2018-02-27T17:03:32.264Z,1029.54
2018-02-27T17:04:59.290Z,1029.55
2018-02-27T17:06:26.099Z,1029.57
2018-02-27T17:07:53.061Z,1029.59
2018-02-27T17:09:20.028Z,1029.64
2018-02-27T17:10:46.918Z,1029.70
2018-02-27T17:12:13.909Z,1029.71
2018-02-27T17:13:43.741Z,1029.71
2018-02-27T17:15:07.681Z,1029.71
2018-02-27T17:16:34.574Z,1029.74
2018-02-27T17:18:01.149Z,1029.74
2018-02-27T17:19:28.006Z,1029.74
2018-02-27T17:20:54.684Z,1029.75
2018-02-27T17:22:21.584Z,1029.78
2018-02-27T17:23:48.365Z,1029.82
2018-02-27T17:25:16.279Z,1029.85
2018-02-27T17:26:42.213Z,1029.86
2018-02-27T17:28:08.946Z,1029.88
2018-02-27T17:29:35.736Z,1029.91
2018-02-27T17:31:02.708Z,1029.92
2018-02-27T17:32:29.790Z,1029.93